F/V Le Mirador — FPHO — position and weather

sailwx.info

Track history (hours):
 
Tides and Currents Weather Stations Pressure Air Temp Water Temp Dewpoint Dewpoint Depression Visibility Wind Speed Wind Dir Waves Ship Positions

F/V Le Mirador

Last reported at 2014-Oct-25 16:08 UTC. Time now 2014-Oct-25 18:15 UTC.
Position N 46°43' W 002°18'.

Length 19 m; draft 2.8 m.

Type: Fishing. MMSI: 227901000.

Date/timePositionNaut miles runAvg speedWind from/ knotsBaromVisibWave heightAir tempDewpointWater temp
2014-Oct-25 16:08N 46°43' W 002°18'5 8.6
2014-Oct-25 15:32N 46°40' W 002°12'9 8.9
2014-Oct-25 14:33N 46°35' W 002°02'9 8.9
2014-Oct-25 13:33N 46°29' W 001°52'3 3.3
2014-Oct-25 12:33N 46°30' W 001°47'3 3.0
2014-Oct-25 11:33N 46°28' W 001°50'9 9.0
2014-Oct-25 10:33N 46°24' W 002°02'9 8.6
2014-Oct-25 09:31N 46°21' W 002°15'22 1.0
2014-Oct-24 12:21N 46°12' W 002°44'9 4.2
2014-Oct-24 10:11N 46°05' W 002°51'4 5.6
2014-Oct-24 09:31N 46°02' W 002°56'  
2014-Oct-21 08:25N 46°41' W 002°16'9 9.3
2014-Oct-21 07:28N 46°33' W 002°23'26 1.2
2014-Oct-20 10:05N 46°11' W 002°43'1 1.1
2014-Oct-20 09:21N 46°12' W 002°43'1 0.4
2014-Oct-20 07:12N 46°13' W 002°43'1 1.3
2014-Oct-20 06:29N 46°12' W 002°42'2 0.7
2014-Oct-20 04:26N 46°10' W 002°42'0 0.1
2014-Oct-20 03:25N 46°10' W 002°42'0 0.0
2014-Oct-20 02:28N 46°10' W 002°42'0 0.1
2014-Oct-20 01:25N 46°10' W 002°42'0 0.1
2014-Oct-20 00:22N 46°10' W 002°42'0 0.1
2014-Oct-19 23:22N 46°10' W 002°42'0 0.0
2014-Oct-19 21:31N 46°10' W 002°42'8 8.8
2014-Oct-19 20:33N 46°14' W 002°31'13 9.1
2014-Oct-19 19:07N 46°20' W 002°14'5 9.4
2014-Oct-19 18:33N 46°22' W 002°07'9 9.2
2014-Oct-19 17:33N 46°26' W 001°55'7 6.6
2014-Oct-19 16:33N 46°30' W 001°47'0 0.2
2014-Oct-19 15:34N 46°30' W 001°47'6 6.2
2014-Oct-19 14:34N 46°26' W 001°54'9 9.4
2014-Oct-19 13:33N 46°22' W 002°07'31 3.0
2014-Oct-19 03:12N 46°02' W 002°42'28 1.0
2014-Oct-17 23:25N 46°28' W 002°59'0 0.0
2014-Oct-17 18:19N 46°28' W 002°59'0 0.0
2014-Oct-17 17:31N 46°28' W 002°59'0 0.1
2014-Oct-17 16:31N 46°28' W 002°59'  
Track history (hours):
 
Tides and Currents Weather Stations Pressure Air Temp Water Temp Dewpoint Dewpoint Depression Visibility Wind Speed Wind Dir Waves Ship Positions

F/V Le Mirador

Last reported at 2014-Oct-25 16:08 UTC. Time now 2014-Oct-25 18:15 UTC.
Position N 46°43' W 002°18'.

Length 19 m; draft 2.8 m.

Type: Fishing. MMSI: 227901000.

Date/timePositionNaut miles runAvg speedWind from/ knotsBaromVisibWave heightAir tempDewpointWater temp
2014-Oct-25 16:08N 46°43' W 002°18'5 8.6
2014-Oct-25 15:32N 46°40' W 002°12'9 8.9
2014-Oct-25 14:33N 46°35' W 002°02'9 8.9
2014-Oct-25 13:33N 46°29' W 001°52'3 3.3
2014-Oct-25 12:33N 46°30' W 001°47'3 3.0
2014-Oct-25 11:33N 46°28' W 001°50'9 9.0
2014-Oct-25 10:33N 46°24' W 002°02'9 8.6
2014-Oct-25 09:31N 46°21' W 002°15'22 1.0
2014-Oct-24 12:21N 46°12' W 002°44'9 4.2
2014-Oct-24 10:11N 46°05' W 002°51'4 5.6
2014-Oct-24 09:31N 46°02' W 002°56'  
2014-Oct-21 08:25N 46°41' W 002°16'9 9.3
2014-Oct-21 07:28N 46°33' W 002°23'26 1.2
2014-Oct-20 10:05N 46°11' W 002°43'1 1.1
2014-Oct-20 09:21N 46°12' W 002°43'1 0.4
2014-Oct-20 07:12N 46°13' W 002°43'1 1.3
2014-Oct-20 06:29N 46°12' W 002°42'2 0.7
2014-Oct-20 04:26N 46°10' W 002°42'0 0.1
2014-Oct-20 03:25N 46°10' W 002°42'0 0.0
2014-Oct-20 02:28N 46°10' W 002°42'0 0.1
2014-Oct-20 01:25N 46°10' W 002°42'0 0.1
2014-Oct-20 00:22N 46°10' W 002°42'0 0.1
2014-Oct-19 23:22N 46°10' W 002°42'0 0.0
2014-Oct-19 21:31N 46°10' W 002°42'8 8.8
2014-Oct-19 20:33N 46°14' W 002°31'13 9.1
2014-Oct-19 19:07N 46°20' W 002°14'5 9.4
2014-Oct-19 18:33N 46°22' W 002°07'9 9.2
2014-Oct-19 17:33N 46°26' W 001°55'7 6.6
2014-Oct-19 16:33N 46°30' W 001°47'0 0.2
2014-Oct-19 15:34N 46°30' W 001°47'6 6.2
2014-Oct-19 14:34N 46°26' W 001°54'9 9.4
2014-Oct-19 13:33N 46°22' W 002°07'31 3.0
2014-Oct-19 03:12N 46°02' W 002°42'28 1.0
2014-Oct-17 23:25N 46°28' W 002°59'0 0.0
2014-Oct-17 18:19N 46°28' W 002°59'0 0.0
2014-Oct-17 17:31N 46°28' W 002°59'0 0.1
2014-Oct-17 16:31N 46°28' W 002°59'  

Dump ship's entire track history